createdAt,value
2022-12-25T00:01:11.523Z,10.04
2022-12-25T00:03:38.783Z,10.06
2022-12-25T00:06:05.677Z,10.11
2022-12-25T00:08:32.421Z,10.11
2022-12-25T00:11:05.013Z,10.04
2022-12-25T00:13:31.613Z,10.08
2022-12-25T00:15:58.090Z,10.10
2022-12-25T00:18:24.565Z,10.14
2022-12-25T00:21:02.608Z,10.17
2022-12-25T00:23:29.862Z,10.17
2022-12-25T00:25:56.646Z,10.26
2022-12-25T00:28:24.494Z,10.17
2022-12-25T00:30:51.601Z,10.27
2022-12-25T00:33:18.588Z,10.22
2022-12-25T00:35:45.016Z,10.23
2022-12-25T00:38:11.438Z,10.25
2022-12-25T00:40:44.295Z,10.24
2022-12-25T00:43:11.063Z,10.27
2022-12-25T00:45:37.597Z,10.31
2022-12-25T00:48:04.416Z,10.35
2022-12-25T00:50:30.997Z,10.33
2022-12-25T00:52:57.427Z,10.35
2022-12-25T00:55:23.852Z,10.35
2022-12-25T00:57:52.964Z,10.37
2022-12-25T01:00:19.553Z,10.38
2022-12-25T01:02:46.047Z,10.38
2022-12-25T01:05:12.826Z,10.33
2022-12-25T01:07:39.305Z,10.34
2022-12-25T01:10:24.841Z,10.27
2022-12-25T01:12:51.676Z,10.30
2022-12-25T01:15:18.749Z,10.30
2022-12-25T01:17:45.491Z,10.35
2022-12-25T01:20:32.164Z,10.34
2022-12-25T01:22:58.603Z,10.33
2022-12-25T01:25:25.041Z,10.31
2022-12-25T01:27:54.951Z,10.34
2022-12-25T01:30:21.411Z,10.32
2022-12-25T01:32:47.839Z,10.33
2022-12-25T01:35:14.213Z,10.29
2022-12-25T01:37:40.664Z,10.12
2022-12-25T01:40:08.194Z,10.11
2022-12-25T01:42:34.684Z,10.10
2022-12-25T01:45:24.220Z,10.09
2022-12-25T01:47:50.728Z,10.09
2022-12-25T01:50:17.322Z,10.07
2022-12-25T01:52:44.379Z,10.08
2022-12-25T01:55:11.748Z,10.18
2022-12-25T01:57:39.239Z,10.09
2022-12-25T02:00:07.369Z,10.16
2022-12-25T02:02:34.820Z,10.20
2022-12-25T02:05:22.683Z,10.18
2022-12-25T02:07:49.752Z,10.25
2022-12-25T02:10:16.971Z,10.14
2022-12-25T02:12:45.030Z,10.21
2022-12-25T02:15:14.550Z,10.25
2022-12-25T02:17:56.139Z,10.28
2022-12-25T02:20:47.204Z,10.28
2022-12-25T02:23:42.183Z,10.29
2022-12-25T02:26:11.556Z,10.29
2022-12-25T02:28:47.802Z,10.26
2022-12-25T02:31:23.700Z,10.21
2022-12-25T02:34:08.177Z,10.23
2022-12-25T02:36:50.152Z,10.23
2022-12-25T02:39:44.315Z,10.28
2022-12-25T02:42:15.047Z,10.29
2022-12-25T02:45:02.501Z,10.30
2022-12-25T02:47:54.818Z,10.28
2022-12-25T02:50:40.329Z,10.28
2022-12-25T02:53:40.163Z,10.29
2022-12-25T02:56:25.242Z,10.26
2022-12-25T02:59:10.337Z,10.24
2022-12-25T03:01:56.024Z,10.25
2022-12-25T03:04:43.658Z,10.18
2022-12-25T03:07:12.251Z,10.19
2022-12-25T03:10:00.222Z,10.24
2022-12-25T03:12:29.577Z,10.25
2022-12-25T03:15:14.519Z,10.26
2022-12-25T03:17:40.988Z,10.26
2022-12-25T03:20:26.454Z,10.19
2022-12-25T03:23:12.100Z,10.08
2022-12-25T03:25:57.128Z,10.02
2022-12-25T03:28:23.523Z,9.90
2022-12-25T03:31:13.327Z,9.98
2022-12-25T03:34:24.484Z,10.00
2022-12-25T03:37:21.473Z,9.97
2022-12-25T03:40:26.067Z,9.92
2022-12-25T03:43:26.562Z,10.04
2022-12-25T03:46:16.688Z,10.00
2022-12-25T03:49:04.195Z,10.00
2022-12-25T03:51:52.250Z,10.07
2022-12-25T03:54:40.405Z,10.06
2022-12-25T03:57:25.674Z,10.08
2022-12-25T04:00:10.891Z,10.09
2022-12-25T04:02:56.378Z,10.11
2022-12-25T04:05:41.602Z,10.07
2022-12-25T04:08:26.945Z,10.10
2022-12-25T04:11:12.131Z,10.11
2022-12-25T04:13:57.040Z,10.03
2022-12-25T04:16:41.911Z,10.09
2022-12-25T04:19:28.195Z,10.04
2022-12-25T04:22:13.308Z,10.04
2022-12-25T04:24:57.978Z,10.07
2022-12-25T04:27:42.810Z,10.08
2022-12-25T04:30:28.049Z,10.06
2022-12-25T04:33:16.935Z,10.10
2022-12-25T04:36:08.681Z,10.09
2022-12-25T04:38:35.898Z,10.08
2022-12-25T04:41:03.008Z,10.09
2022-12-25T04:43:29.770Z,10.09
2022-12-25T04:45:57.820Z,10.12
2022-12-25T04:48:24.839Z,10.15
2022-12-25T04:50:51.292Z,10.16
2022-12-25T04:53:17.883Z,10.14
2022-12-25T04:55:44.395Z,10.16
2022-12-25T04:58:10.826Z,10.13
2022-12-25T05:00:37.244Z,10.13
2022-12-25T05:03:03.811Z,10.14
2022-12-25T05:05:30.320Z,10.18
2022-12-25T05:07:57.149Z,10.17
2022-12-25T05:10:24.140Z,10.17
2022-12-25T05:12:50.920Z,10.13
2022-12-25T05:15:17.504Z,10.14
2022-12-25T05:17:43.928Z,10.17
2022-12-25T05:20:10.396Z,10.16
2022-12-25T05:22:36.782Z,10.17
2022-12-25T05:25:03.268Z,10.17
2022-12-25T05:27:29.695Z,10.12
2022-12-25T05:29:56.093Z,10.17
2022-12-25T05:32:22.503Z,10.17
2022-12-25T05:34:48.915Z,10.18
2022-12-25T05:37:15.328Z,10.17
2022-12-25T05:39:41.767Z,10.09
2022-12-25T05:42:08.162Z,10.16
2022-12-25T05:44:34.539Z,10.13
2022-12-25T05:47:01.052Z,10.12
2022-12-25T05:49:27.543Z,10.14
2022-12-25T05:51:53.974Z,10.13
2022-12-25T05:54:20.759Z,10.13
2022-12-25T05:56:49.278Z,10.14
2022-12-25T05:59:15.664Z,10.14
2022-12-25T06:01:42.212Z,10.14
2022-12-25T06:04:12.736Z,10.14
2022-12-25T06:06:39.604Z,10.17
2022-12-25T06:09:06.027Z,10.18
2022-12-25T06:11:32.600Z,10.15
2022-12-25T06:13:58.978Z,10.14
2022-12-25T06:16:25.461Z,10.14
2022-12-25T06:18:52.412Z,10.18
2022-12-25T06:21:18.901Z,10.18
2022-12-25T06:23:45.411Z,10.18
2022-12-25T06:26:14.399Z,10.09
2022-12-25T06:28:41.039Z,10.00
2022-12-25T06:31:07.973Z,10.03
2022-12-25T06:33:34.579Z,10.08
2022-12-25T06:36:33.793Z,10.09
2022-12-25T06:39:01.139Z,10.09
2022-12-25T06:41:28.732Z,10.10
2022-12-25T06:43:57.834Z,10.10
2022-12-25T06:46:26.231Z,10.11
2022-12-25T06:48:52.858Z,10.13
2022-12-25T06:51:21.601Z,10.12
2022-12-25T06:53:49.142Z,10.14
2022-12-25T06:56:18.750Z,10.14
2022-12-25T06:58:59.611Z,10.14
2022-12-25T07:01:30.253Z,10.13
2022-12-25T07:03:59.059Z,10.11
2022-12-25T07:06:25.840Z,10.09
2022-12-25T07:08:52.645Z,10.12
2022-12-25T07:11:19.325Z,10.10
2022-12-25T07:13:46.086Z,10.10
2022-12-25T07:16:13.179Z,10.09
2022-12-25T07:18:40.115Z,10.10
2022-12-25T07:21:15.141Z,10.06
2022-12-25T07:23:42.617Z,9.98
2022-12-25T07:26:10.657Z,9.89
2022-12-25T07:28:37.268Z,9.97
2022-12-25T07:31:06.220Z,9.97
2022-12-25T07:33:33.298Z,10.00
2022-12-25T07:36:00.114Z,10.01
2022-12-25T07:38:26.871Z,10.02
2022-12-25T07:40:53.542Z,9.88
2022-12-25T07:43:20.353Z,9.83
2022-12-25T07:45:46.965Z,9.76
2022-12-25T07:48:16.648Z,9.89
2022-12-25T07:50:43.618Z,9.96
2022-12-25T07:53:10.110Z,10.01
2022-12-25T07:55:36.533Z,9.99
2022-12-25T07:58:03.034Z,10.00
2022-12-25T08:00:33.310Z,10.02
2022-12-25T08:03:00.004Z,10.09
2022-12-25T08:05:26.865Z,10.13
2022-12-25T08:07:57.592Z,10.16
2022-12-25T08:10:24.632Z,10.20
2022-12-25T08:12:51.971Z,10.22
2022-12-25T08:15:18.475Z,10.25
2022-12-25T08:17:44.846Z,10.26
2022-12-25T08:20:11.660Z,10.30
2022-12-25T08:22:38.062Z,10.31
2022-12-25T08:25:04.863Z,10.28
2022-12-25T08:27:31.374Z,10.34
2022-12-25T08:29:57.838Z,10.35
2022-12-25T08:32:24.267Z,10.37
2022-12-25T08:34:50.767Z,10.36
2022-12-25T08:37:17.209Z,10.39
2022-12-25T08:39:43.592Z,10.40
2022-12-25T08:42:10.039Z,10.37
2022-12-25T08:44:36.455Z,10.31
2022-12-25T08:47:02.832Z,10.40
2022-12-25T08:49:29.414Z,10.43
2022-12-25T08:51:56.257Z,10.48
2022-12-25T08:54:22.811Z,10.45
2022-12-25T08:56:49.222Z,10.51
2022-12-25T08:59:15.679Z,10.53
2022-12-25T09:01:42.226Z,10.53
2022-12-25T09:04:08.711Z,10.58
2022-12-25T09:06:35.133Z,10.63
2022-12-25T09:09:01.526Z,10.68
2022-12-25T09:11:28.070Z,10.71
2022-12-25T09:13:54.482Z,10.76
2022-12-25T09:16:22.130Z,10.77
2022-12-25T09:18:50.658Z,10.68
2022-12-25T09:21:17.373Z,10.78
2022-12-25T09:23:44.266Z,10.85
2022-12-25T09:26:14.111Z,10.85
2022-12-25T09:28:50.340Z,10.90
2022-12-25T09:31:18.313Z,10.95
2022-12-25T09:33:44.775Z,10.97
2022-12-25T09:36:11.396Z,11.01
2022-12-25T09:38:37.923Z,11.01
2022-12-25T09:41:31.658Z,11.04
2022-12-25T09:44:01.437Z,11.06
2022-12-25T09:46:36.471Z,11.09
2022-12-25T09:49:07.950Z,11.09
2022-12-25T09:51:35.857Z,11.10
2022-12-25T09:54:30.587Z,11.13
2022-12-25T09:56:57.485Z,11.14
2022-12-25T09:59:25.421Z,11.19
2022-12-25T10:02:10.494Z,11.21
2022-12-25T10:04:51.480Z,11.24
2022-12-25T10:07:30.816Z,11.28
2022-12-25T10:10:04.606Z,11.32
2022-12-25T10:13:09.642Z,11.28
2022-12-25T10:16:18.123Z,11.28
2022-12-25T10:19:06.425Z,11.33
2022-12-25T10:21:32.987Z,11.39
2022-12-25T10:24:07.362Z,11.37
2022-12-25T10:26:34.422Z,11.42
2022-12-25T10:29:11.765Z,11.43
2022-12-25T10:31:38.333Z,11.46
2022-12-25T10:34:06.076Z,11.51
2022-12-25T10:36:33.145Z,11.56
2022-12-25T10:38:59.569Z,11.63
2022-12-25T10:41:32.200Z,11.72
2022-12-25T11:00:33.164Z,11.77
2022-12-25T11:03:00.059Z,11.78
2022-12-25T11:05:28.437Z,11.82
2022-12-25T11:07:55.978Z,11.82
2022-12-25T11:10:38.500Z,11.85
2022-12-25T11:13:07.635Z,11.87
2022-12-25T11:15:45.005Z,11.92
2022-12-25T11:18:21.688Z,11.97
2022-12-25T11:21:14.808Z,12.02
2022-12-25T11:23:49.087Z,12.03
2022-12-25T11:26:17.514Z,12.07
2022-12-25T11:28:45.415Z,12.09
2022-12-25T11:31:19.212Z,12.14
2022-12-25T11:34:05.931Z,12.18
2022-12-25T11:36:50.021Z,12.17
2022-12-25T11:39:29.638Z,12.19
2022-12-25T11:42:02.563Z,12.21
2022-12-25T11:44:45.620Z,12.21
2022-12-25T11:47:19.779Z,12.24
2022-12-25T11:49:57.383Z,12.26
2022-12-25T11:52:29.411Z,12.28
2022-12-25T11:55:03.199Z,12.30
2022-12-25T11:57:30.781Z,12.31
2022-12-25T12:00:06.788Z,12.27
2022-12-25T12:02:39.068Z,12.31
2022-12-25T12:05:21.259Z,12.39
2022-12-25T12:07:54.863Z,12.42
2022-12-25T12:10:24.662Z,12.47
2022-12-25T12:12:57.928Z,12.50
2022-12-25T12:15:31.183Z,12.58
2022-12-25T12:18:28.491Z,12.60
2022-12-25T12:21:16.241Z,12.70
2022-12-25T12:23:57.278Z,12.74
2022-12-25T12:26:26.034Z,12.75
2022-12-25T12:28:57.515Z,12.76
2022-12-25T12:31:24.606Z,12.79
2022-12-25T12:33:56.629Z,12.82
2022-12-25T12:36:35.547Z,12.85
2022-12-25T12:39:04.986Z,12.88
2022-12-25T12:41:48.173Z,12.92
2022-12-25T12:44:16.642Z,12.91
2022-12-25T12:46:57.049Z,12.93
2022-12-25T12:49:28.942Z,12.94
2022-12-25T12:52:28.992Z,12.95
2022-12-25T12:54:59.646Z,12.94
2022-12-25T12:57:29.772Z,12.96
2022-12-25T12:59:57.442Z,12.99
2022-12-25T13:03:01.012Z,13.00
2022-12-25T13:05:45.975Z,13.02
2022-12-25T13:08:27.686Z,13.05
2022-12-25T13:11:19.720Z,13.03
2022-12-25T13:13:47.480Z,13.03
2022-12-25T13:16:37.218Z,13.03
2022-12-25T13:19:24.905Z,13.02
2022-12-25T13:22:03.198Z,13.00
2022-12-25T13:24:35.374Z,12.97
2022-12-25T13:27:15.858Z,13.01
2022-12-25T13:29:42.503Z,12.99
2022-12-25T13:32:19.426Z,13.01
2022-12-25T13:34:45.907Z,13.03
2022-12-25T13:37:16.893Z,13.02
2022-12-25T13:39:57.991Z,13.02
2022-12-25T13:42:30.541Z,13.03
2022-12-25T13:44:58.995Z,13.02
2022-12-25T13:47:30.551Z,13.04
2022-12-25T13:49:58.497Z,13.01
2022-12-25T13:52:34.972Z,13.05
2022-12-25T13:55:23.075Z,13.03
2022-12-25T13:57:51.909Z,13.02
2022-12-25T14:00:21.674Z,13.07
2022-12-25T14:02:48.539Z,13.10
2022-12-25T14:05:42.189Z,13.15
2022-12-25T14:08:15.202Z,13.19
2022-12-25T14:10:41.765Z,13.12
2022-12-25T14:13:12.271Z,13.05
2022-12-25T14:15:39.913Z,13.04
2022-12-25T14:18:06.894Z,13.00
2022-12-25T14:20:57.041Z,12.95
2022-12-25T14:23:23.629Z,12.93
2022-12-25T14:25:50.084Z,12.91
2022-12-25T14:28:22.438Z,12.87
2022-12-25T14:30:49.248Z,12.85
2022-12-25T14:33:18.353Z,12.83
2022-12-25T14:35:44.974Z,12.76
2022-12-25T14:38:24.691Z,12.73
2022-12-25T14:41:16.915Z,12.70
2022-12-25T14:43:53.461Z,12.68
2022-12-25T14:46:26.055Z,12.70
2022-12-25T14:49:00.572Z,12.76
2022-12-25T14:51:27.573Z,12.68
2022-12-25T14:53:56.130Z,12.76
2022-12-25T14:56:24.659Z,12.76
2022-12-25T14:58:54.577Z,12.76
2022-12-25T15:01:24.172Z,12.75
2022-12-25T15:03:50.817Z,12.72
2022-12-25T15:06:20.934Z,12.69
2022-12-25T15:08:59.475Z,12.66
2022-12-25T15:11:26.113Z,12.59
2022-12-25T15:13:52.735Z,12.56
2022-12-25T15:16:22.641Z,12.51
2022-12-25T15:18:50.014Z,12.46
2022-12-25T15:21:29.101Z,12.40
2022-12-25T15:23:57.459Z,12.31
2022-12-25T15:26:24.893Z,12.26
2022-12-25T15:28:51.493Z,12.19
2022-12-25T15:31:30.186Z,12.14
2022-12-25T15:33:58.624Z,12.14
2022-12-25T15:36:25.947Z,12.06
2022-12-25T15:38:52.952Z,12.04
2022-12-25T15:41:42.694Z,12.10
2022-12-25T15:44:11.453Z,12.10
2022-12-25T15:46:37.930Z,12.03
2022-12-25T15:49:04.637Z,12.02
2022-12-25T15:51:31.252Z,11.95
2022-12-25T15:53:58.933Z,12.02
2022-12-25T15:56:26.212Z,11.96
2022-12-25T15:58:52.668Z,12.00
2022-12-25T16:01:20.363Z,11.95
2022-12-25T16:03:47.337Z,11.90
2022-12-25T16:06:16.243Z,11.73
2022-12-25T16:08:43.258Z,11.65
2022-12-25T16:11:10.084Z,11.55
2022-12-25T16:13:36.948Z,11.55
2022-12-25T16:16:04.130Z,11.59
2022-12-25T16:18:30.641Z,11.53
2022-12-25T16:20:58.098Z,11.38
2022-12-25T16:23:24.678Z,11.42
2022-12-25T16:25:51.130Z,11.39
2022-12-25T16:28:17.549Z,11.37
2022-12-25T16:30:44.001Z,11.34
2022-12-25T16:33:11.191Z,11.33
2022-12-25T16:35:37.647Z,11.27
2022-12-25T16:38:04.084Z,11.30
2022-12-25T16:40:31.461Z,11.30
2022-12-25T16:43:01.009Z,11.36
2022-12-25T16:45:27.436Z,11.37
2022-12-25T16:47:53.919Z,11.37
2022-12-25T16:50:20.440Z,11.45
2022-12-25T16:52:46.825Z,11.50
2022-12-25T16:55:13.601Z,11.51
2022-12-25T16:57:40.101Z,11.54
2022-12-25T17:00:07.100Z,11.56
2022-12-25T17:02:33.596Z,11.57
2022-12-25T17:05:02.832Z,11.57
2022-12-25T17:07:29.214Z,11.58
2022-12-25T17:09:57.117Z,11.59
2022-12-25T17:12:23.587Z,11.59
2022-12-25T17:14:50.244Z,11.58
2022-12-25T17:17:16.696Z,11.60
2022-12-25T17:19:43.172Z,11.59
2022-12-25T17:22:09.578Z,11.58
2022-12-25T17:24:37.303Z,11.61
2022-12-25T17:27:03.814Z,11.63
2022-12-25T17:29:31.811Z,11.65
2022-12-25T17:31:58.357Z,11.63
2022-12-25T17:34:24.805Z,11.63
2022-12-25T17:36:52.827Z,11.60
2022-12-25T17:39:19.450Z,11.57
2022-12-25T17:41:45.837Z,11.60
2022-12-25T17:44:12.273Z,11.61
2022-12-25T17:46:38.855Z,11.60
2022-12-25T17:49:05.668Z,11.63
2022-12-25T17:51:32.502Z,11.62
2022-12-25T17:54:02.939Z,11.58
2022-12-25T17:56:29.899Z,11.60
2022-12-25T17:58:58.460Z,11.61
2022-12-25T18:01:26.221Z,11.64
2022-12-25T18:03:53.256Z,11.59
2022-12-25T18:06:22.070Z,11.58
2022-12-25T18:08:49.565Z,11.55
2022-12-25T18:11:21.469Z,11.61
2022-12-25T18:13:51.652Z,11.60
2022-12-25T18:16:19.945Z,11.57
2022-12-25T18:18:51.818Z,11.56
2022-12-25T18:21:20.077Z,11.59
2022-12-25T18:23:46.672Z,11.65
2022-12-25T18:26:13.260Z,11.65
2022-12-25T18:28:39.864Z,11.63
2022-12-25T18:31:19.471Z,11.57
2022-12-25T18:33:46.209Z,11.61
2022-12-25T18:36:14.201Z,11.59
2022-12-25T18:38:40.688Z,11.64
2022-12-25T18:41:08.586Z,11.56
2022-12-25T18:43:54.283Z,11.66
2022-12-25T18:46:24.560Z,11.61
2022-12-25T18:48:51.795Z,11.66
2022-12-25T18:51:18.325Z,11.61
2022-12-25T18:53:44.840Z,11.61
2022-12-25T18:56:15.125Z,11.62
2022-12-25T18:58:41.859Z,11.61
2022-12-25T19:01:20.259Z,11.58
2022-12-25T19:03:48.749Z,11.66
2022-12-25T19:06:19.269Z,11.59
2022-12-25T19:08:46.107Z,11.59
2022-12-25T19:11:13.059Z,11.62
2022-12-25T19:13:39.495Z,11.63
2022-12-25T19:16:06.146Z,11.59
2022-12-25T19:18:32.596Z,11.62
2022-12-25T19:21:07.666Z,11.57
2022-12-25T19:23:34.499Z,11.57
2022-12-25T19:26:00.949Z,11.55
2022-12-25T19:28:27.414Z,11.51
2022-12-25T19:30:54.275Z,11.48
2022-12-25T19:33:21.672Z,11.47
2022-12-25T19:35:48.951Z,11.45
2022-12-25T19:38:15.935Z,11.43
2022-12-25T19:41:00.131Z,11.45
2022-12-25T19:43:28.910Z,11.46
2022-12-25T19:45:56.941Z,11.43
2022-12-25T19:48:23.866Z,11.48
2022-12-25T19:50:50.943Z,11.43
2022-12-25T19:53:18.263Z,11.46
2022-12-25T19:55:45.403Z,11.52
2022-12-25T19:58:12.174Z,11.42
2022-12-25T20:00:40.274Z,11.42
2022-12-25T20:03:06.804Z,11.48
2022-12-25T20:05:33.341Z,11.42
2022-12-25T20:07:59.737Z,11.43
2022-12-25T20:10:26.268Z,11.47
2022-12-25T20:12:53.217Z,11.49
2022-12-25T20:15:19.859Z,11.46
2022-12-25T20:17:47.231Z,11.46
2022-12-25T20:20:13.918Z,11.47
2022-12-25T20:22:40.398Z,11.46
2022-12-25T20:25:09.056Z,11.34
2022-12-25T20:27:35.627Z,11.32
2022-12-25T20:30:02.171Z,11.40
2022-12-25T20:32:29.291Z,11.36
2022-12-25T20:34:55.680Z,11.29
2022-12-25T20:37:22.099Z,11.31
2022-12-25T20:39:48.506Z,11.26
2022-12-25T20:42:14.944Z,11.34
2022-12-25T20:44:41.323Z,11.31
2022-12-25T20:47:08.103Z,11.37
2022-12-25T20:49:34.728Z,11.37
2022-12-25T20:52:05.257Z,11.35
2022-12-25T20:54:32.353Z,11.35
2022-12-25T20:56:58.761Z,11.40
2022-12-25T20:59:25.513Z,11.43
2022-12-25T21:01:54.340Z,11.43
2022-12-25T21:04:20.871Z,11.38
2022-12-25T21:06:47.306Z,11.39
2022-12-25T21:09:13.815Z,11.33
2022-12-25T21:11:40.341Z,11.41
2022-12-25T21:14:06.914Z,11.35
2022-12-25T21:16:33.649Z,11.37
2022-12-25T21:19:00.140Z,11.36
2022-12-25T21:21:35.893Z,11.41
2022-12-25T21:24:02.284Z,11.43
2022-12-25T21:26:31.289Z,11.47
2022-12-25T21:29:00.280Z,11.48
2022-12-25T21:31:27.334Z,11.44
2022-12-25T21:33:55.305Z,11.52
2022-12-25T21:36:30.456Z,11.48
2022-12-25T21:38:59.044Z,11.39
2022-12-25T21:41:26.612Z,11.47
2022-12-25T21:43:53.071Z,11.48
2022-12-25T21:46:23.920Z,11.57
2022-12-25T21:48:50.453Z,11.53
2022-12-25T21:51:39.712Z,11.54
2022-12-25T21:54:07.344Z,11.50
2022-12-25T21:56:41.334Z,11.53
2022-12-25T21:59:11.362Z,11.50
2022-12-25T22:01:38.218Z,11.56
2022-12-25T22:04:07.081Z,11.57
2022-12-25T22:06:52.658Z,11.55
2022-12-25T22:09:19.194Z,11.46
2022-12-25T22:12:04.357Z,11.48
2022-12-25T22:14:52.215Z,11.51
2022-12-25T22:17:43.480Z,11.50
2022-12-25T22:20:13.311Z,11.56
2022-12-25T22:22:39.843Z,11.52
2022-12-25T22:25:07.009Z,11.58
2022-12-25T22:27:35.667Z,11.57
2022-12-25T22:30:02.104Z,11.59
2022-12-25T22:32:28.665Z,11.58
2022-12-25T22:34:55.150Z,11.60
2022-12-25T22:37:23.961Z,11.65
2022-12-25T22:39:50.365Z,11.60
2022-12-25T22:42:17.148Z,11.70
2022-12-25T22:44:44.095Z,11.74
2022-12-25T22:47:10.555Z,11.69
2022-12-25T22:49:37.146Z,11.71
2022-12-25T22:52:03.949Z,11.66
2022-12-25T22:54:31.573Z,11.70
2022-12-25T22:56:58.277Z,11.71
2022-12-25T22:59:25.184Z,11.63
2022-12-25T23:01:51.770Z,11.68
2022-12-25T23:04:18.379Z,11.65
2022-12-25T23:06:44.995Z,11.60
2022-12-25T23:09:16.357Z,11.60
2022-12-25T23:11:46.968Z,11.68
2022-12-25T23:14:31.935Z,11.62
2022-12-25T23:17:00.243Z,11.65
2022-12-25T23:19:45.316Z,11.63
2022-12-25T23:22:30.868Z,11.62
2022-12-25T23:25:16.182Z,11.61
2022-12-25T23:27:43.904Z,11.61
2022-12-25T23:30:16.203Z,11.61
2022-12-25T23:32:44.393Z,11.60
2022-12-25T23:35:11.326Z,11.57
2022-12-25T23:37:37.753Z,11.61
2022-12-25T23:40:05.115Z,11.64
2022-12-25T23:42:31.566Z,11.60
2022-12-25T23:44:57.987Z,11.59
2022-12-25T23:47:24.411Z,11.64
2022-12-25T23:49:50.837Z,11.60
2022-12-25T23:52:17.286Z,11.62
2022-12-25T23:54:43.742Z,11.63
2022-12-25T23:57:10.163Z,11.59
2022-12-25T23:59:36.631Z,11.56
